sensor_id;sensor_type;location;lat;lon;timestamp;P1;durP1;ratioP1;P2;durP2;ratioP2
70970;SDS011;58632;51.718;19.446;2024-03-17T00:01:09;7.00;;;3.40;;
70970;SDS011;58632;51.718;19.446;2024-03-17T00:03:54;6.90;;;4.00;;
70970;SDS011;58632;51.718;19.446;2024-03-17T00:06:19;7.20;;;3.60;;
70970;SDS011;58632;51.718;19.446;2024-03-17T00:08:45;7.50;;;3.40;;
70970;SDS011;58632;51.718;19.446;2024-03-17T00:11:11;12.50;;;3.50;;
70970;SDS011;58632;51.718;19.446;2024-03-17T00:13:36;7.50;;;3.20;;
70970;SDS011;58632;51.718;19.446;2024-03-17T00:16:02;9.10;;;3.00;;
70970;SDS011;58632;51.718;19.446;2024-03-17T00:18:28;8.20;;;3.10;;
70970;SDS011;58632;51.718;19.446;2024-03-17T00:20:53;8.50;;;2.80;;
70970;SDS011;58632;51.718;19.446;2024-03-17T00:23:19;7.30;;;3.20;;
70970;SDS011;58632;51.718;19.446;2024-03-17T00:25:44;6.20;;;2.80;;
70970;SDS011;58632;51.718;19.446;2024-03-17T00:28:10;6.70;;;2.70;;
70970;SDS011;58632;51.718;19.446;2024-03-17T00:30:39;9.40;;;3.20;;
70970;SDS011;58632;51.718;19.446;2024-03-17T00:33:06;8.90;;;3.40;;
70970;SDS011;58632;51.718;19.446;2024-03-17T00:35:32;10.00;;;3.60;;
70970;SDS011;58632;51.718;19.446;2024-03-17T00:37:58;7.00;;;3.00;;
70970;SDS011;58632;51.718;19.446;2024-03-17T00:40:25;7.90;;;3.60;;
70970;SDS011;58632;51.718;19.446;2024-03-17T00:42:52;9.10;;;3.30;;
70970;SDS011;58632;51.718;19.446;2024-03-17T00:45:19;8.60;;;3.20;;
70970;SDS011;58632;51.718;19.446;2024-03-17T00:47:48;8.00;;;2.80;;
70970;SDS011;58632;51.718;19.446;2024-03-17T00:50:17;7.20;;;3.20;;
70970;SDS011;58632;51.718;19.446;2024-03-17T00:52:44;9.30;;;4.00;;
70970;SDS011;58632;51.718;19.446;2024-03-17T00:55:10;9.50;;;3.70;;
70970;SDS011;58632;51.718;19.446;2024-03-17T00:57:36;12.00;;;4.20;;
70970;SDS011;58632;51.718;19.446;2024-03-17T01:00:03;10.10;;;3.70;;
70970;SDS011;58632;51.718;19.446;2024-03-17T01:02:29;9.10;;;3.30;;
70970;SDS011;58632;51.718;19.446;2024-03-17T01:04:55;9.50;;;3.30;;
70970;SDS011;58632;51.718;19.446;2024-03-17T01:07:20;10.90;;;4.30;;
70970;SDS011;58632;51.718;19.446;2024-03-17T01:09:49;11.40;;;4.40;;
70970;SDS011;58632;51.718;19.446;2024-03-17T01:12:15;12.10;;;4.40;;
70970;SDS011;58632;51.718;19.446;2024-03-17T01:14:40;11.60;;;4.70;;
70970;SDS011;58632;51.718;19.446;2024-03-17T01:17:06;10.40;;;4.30;;
70970;SDS011;58632;51.718;19.446;2024-03-17T01:19:32;13.50;;;4.60;;
70970;SDS011;58632;51.718;19.446;2024-03-17T01:21:59;12.20;;;4.50;;
70970;SDS011;58632;51.718;19.446;2024-03-17T01:24:25;11.10;;;3.80;;
70970;SDS011;58632;51.718;19.446;2024-03-17T01:26:56;8.20;;;3.80;;
70970;SDS011;58632;51.718;19.446;2024-03-17T01:29:23;11.60;;;3.60;;
70970;SDS011;58632;51.718;19.446;2024-03-17T01:31:52;11.30;;;3.90;;
70970;SDS011;58632;51.718;19.446;2024-03-17T01:34:20;9.90;;;3.80;;
70970;SDS011;58632;51.718;19.446;2024-03-17T01:36:47;9.30;;;3.70;;
70970;SDS011;58632;51.718;19.446;2024-03-17T01:39:12;10.60;;;4.20;;
70970;SDS011;58632;51.718;19.446;2024-03-17T01:41:38;11.10;;;4.00;;
70970;SDS011;58632;51.718;19.446;2024-03-17T01:44:04;6.60;;;3.50;;
70970;SDS011;58632;51.718;19.446;2024-03-17T01:46:30;9.00;;;3.70;;
70970;SDS011;58632;51.718;19.446;2024-03-17T01:48:56;8.70;;;3.80;;
70970;SDS011;58632;51.718;19.446;2024-03-17T01:51:22;9.70;;;3.70;;
70970;SDS011;58632;51.718;19.446;2024-03-17T01:53:48;10.60;;;4.40;;
70970;SDS011;58632;51.718;19.446;2024-03-17T01:56:14;10.70;;;4.50;;
70970;SDS011;58632;51.718;19.446;2024-03-17T01:58:44;9.80;;;3.80;;
70970;SDS011;58632;51.718;19.446;2024-03-17T02:01:11;13.70;;;4.50;;
70970;SDS011;58632;51.718;19.446;2024-03-17T02:03:40;8.60;;;4.10;;
70970;SDS011;58632;51.718;19.446;2024-03-17T02:06:07;9.50;;;4.50;;
70970;SDS011;58632;51.718;19.446;2024-03-17T02:08:49;8.30;;;4.20;;
70970;SDS011;58632;51.718;19.446;2024-03-17T02:11:37;10.80;;;4.70;;
70970;SDS011;58632;51.718;19.446;2024-03-17T02:14:02;13.50;;;5.00;;
70970;SDS011;58632;51.718;19.446;2024-03-17T02:16:27;11.00;;;5.00;;
70970;SDS011;58632;51.718;19.446;2024-03-17T02:18:54;13.40;;;4.80;;
70970;SDS011;58632;51.718;19.446;2024-03-17T02:21:20;8.90;;;3.60;;
70970;SDS011;58632;51.718;19.446;2024-03-17T02:23:48;7.40;;;3.80;;
70970;SDS011;58632;51.718;19.446;2024-03-17T02:26:16;8.20;;;3.90;;
70970;SDS011;58632;51.718;19.446;2024-03-17T02:28:44;9.20;;;3.90;;
70970;SDS011;58632;51.718;19.446;2024-03-17T02:31:13;11.40;;;4.80;;
70970;SDS011;58632;51.718;19.446;2024-03-17T02:33:41;12.60;;;4.40;;
70970;SDS011;58632;51.718;19.446;2024-03-17T02:36:07;8.70;;;4.10;;
70970;SDS011;58632;51.718;19.446;2024-03-17T02:38:40;13.10;;;4.20;;
70970;SDS011;58632;51.718;19.446;2024-03-17T02:41:25;12.80;;;3.90;;
70970;SDS011;58632;51.718;19.446;2024-03-17T02:43:51;10.20;;;4.40;;
70970;SDS011;58632;51.718;19.446;2024-03-17T02:46:17;10.70;;;3.80;;
70970;SDS011;58632;51.718;19.446;2024-03-17T02:48:44;9.20;;;4.30;;
70970;SDS011;58632;51.718;19.446;2024-03-17T02:51:15;13.00;;;4.20;;
70970;SDS011;58632;51.718;19.446;2024-03-17T02:53:45;8.40;;;3.80;;
70970;SDS011;58632;51.718;19.446;2024-03-17T02:56:12;7.90;;;3.20;;
70970;SDS011;58632;51.718;19.446;2024-03-17T02:58:42;12.20;;;4.30;;
70970;SDS011;58632;51.718;19.446;2024-03-17T03:03:36;8.70;;;3.40;;
70970;SDS011;58632;51.718;19.446;2024-03-17T03:06:02;9.60;;;3.90;;
70970;SDS011;58632;51.718;19.446;2024-03-17T03:08:35;9.20;;;3.50;;
70970;SDS011;58632;51.718;19.446;2024-03-17T03:11:04;10.20;;;3.40;;
70970;SDS011;58632;51.718;19.446;2024-03-17T03:13:29;13.50;;;3.90;;
70970;SDS011;58632;51.718;19.446;2024-03-17T03:15:57;10.40;;;3.20;;
70970;SDS011;58632;51.718;19.446;2024-03-17T03:18:23;7.80;;;3.80;;
70970;SDS011;58632;51.718;19.446;2024-03-17T03:20:51;10.60;;;3.20;;
70970;SDS011;58632;51.718;19.446;2024-03-17T03:23:18;13.60;;;4.70;;
70970;SDS011;58632;51.718;19.446;2024-03-17T03:25:54;10.60;;;3.40;;
70970;SDS011;58632;51.718;19.446;2024-03-17T03:28:21;10.10;;;3.10;;
70970;SDS011;58632;51.718;19.446;2024-03-17T03:30:47;10.80;;;3.20;;
70970;SDS011;58632;51.718;19.446;2024-03-17T03:33:13;9.70;;;3.00;;
70970;SDS011;58632;51.718;19.446;2024-03-17T03:35:38;9.70;;;3.10;;
70970;SDS011;58632;51.718;19.446;2024-03-17T03:38:03;9.70;;;3.50;;
70970;SDS011;58632;51.718;19.446;2024-03-17T03:40:29;12.60;;;4.30;;
70970;SDS011;58632;51.718;19.446;2024-03-17T03:42:57;12.30;;;3.30;;
70970;SDS011;58632;51.718;19.446;2024-03-17T03:45:22;9.50;;;3.30;;
70970;SDS011;58632;51.718;19.446;2024-03-17T03:47:49;11.00;;;3.10;;
70970;SDS011;58632;51.718;19.446;2024-03-17T03:50:15;7.30;;;3.00;;
70970;SDS011;58632;51.718;19.446;2024-03-17T03:52:44;10.30;;;3.30;;
70970;SDS011;58632;51.718;19.446;2024-03-17T03:55:11;13.60;;;3.20;;
70970;SDS011;58632;51.718;19.446;2024-03-17T03:57:40;12.60;;;3.80;;
70970;SDS011;58632;51.718;19.446;2024-03-17T04:02:38;10.80;;;3.50;;
70970;SDS011;58632;51.718;19.446;2024-03-17T04:05:04;7.50;;;3.20;;
70970;SDS011;58632;51.718;19.446;2024-03-17T04:07:31;10.50;;;3.50;;
70970;SDS011;58632;51.718;19.446;2024-03-17T04:09:56;13.70;;;3.30;;
70970;SDS011;58632;51.718;19.446;2024-03-17T04:12:23;11.70;;;3.40;;
70970;SDS011;58632;51.718;19.446;2024-03-17T04:14:49;7.80;;;3.00;;
70970;SDS011;58632;51.718;19.446;2024-03-17T04:17:21;13.20;;;3.50;;
70970;SDS011;58632;51.718;19.446;2024-03-17T04:19:47;9.30;;;3.10;;
70970;SDS011;58632;51.718;19.446;2024-03-17T04:22:16;7.30;;;3.20;;
70970;SDS011;58632;51.718;19.446;2024-03-17T04:24:48;8.40;;;3.00;;
70970;SDS011;58632;51.718;19.446;2024-03-17T04:27:21;12.30;;;2.90;;
70970;SDS011;58632;51.718;19.446;2024-03-17T04:29:48;11.20;;;2.80;;
70970;SDS011;58632;51.718;19.446;2024-03-17T04:32:14;8.20;;;2.80;;
70970;SDS011;58632;51.718;19.446;2024-03-17T04:34:40;7.60;;;2.80;;
70970;SDS011;58632;51.718;19.446;2024-03-17T04:37:08;8.40;;;3.50;;
70970;SDS011;58632;51.718;19.446;2024-03-17T04:39:38;10.90;;;2.50;;
70970;SDS011;58632;51.718;19.446;2024-03-17T04:42:08;7.30;;;2.50;;
70970;SDS011;58632;51.718;19.446;2024-03-17T04:44:34;6.50;;;2.50;;
70970;SDS011;58632;51.718;19.446;2024-03-17T04:47:00;9.90;;;2.60;;
70970;SDS011;58632;51.718;19.446;2024-03-17T04:49:26;8.20;;;2.60;;
70970;SDS011;58632;51.718;19.446;2024-03-17T04:51:54;12.20;;;3.30;;
70970;SDS011;58632;51.718;19.446;2024-03-17T04:54:22;8.80;;;3.30;;
70970;SDS011;58632;51.718;19.446;2024-03-17T04:56:50;11.30;;;3.60;;
70970;SDS011;58632;51.718;19.446;2024-03-17T04:59:15;8.60;;;3.10;;
70970;SDS011;58632;51.718;19.446;2024-03-17T05:01:41;11.60;;;2.90;;
70970;SDS011;58632;51.718;19.446;2024-03-17T05:04:07;12.40;;;3.80;;
70970;SDS011;58632;51.718;19.446;2024-03-17T05:06:32;10.50;;;3.30;;
70970;SDS011;58632;51.718;19.446;2024-03-17T05:08:58;10.30;;;3.30;;
70970;SDS011;58632;51.718;19.446;2024-03-17T05:11:23;10.10;;;3.10;;
70970;SDS011;58632;51.718;19.446;2024-03-17T05:13:49;9.00;;;2.50;;
70970;SDS011;58632;51.718;19.446;2024-03-17T05:16:15;12.40;;;3.40;;
70970;SDS011;58632;51.718;19.446;2024-03-17T05:18:43;10.70;;;3.50;;
70970;SDS011;58632;51.718;19.446;2024-03-17T05:21:11;9.30;;;3.00;;
70970;SDS011;58632;51.718;19.446;2024-03-17T05:23:37;11.50;;;3.50;;
70970;SDS011;58632;51.718;19.446;2024-03-17T05:26:02;9.90;;;3.20;;
70970;SDS011;58632;51.718;19.446;2024-03-17T05:28:31;8.80;;;2.60;;
70970;SDS011;58632;51.718;19.446;2024-03-17T05:30:58;5.60;;;2.60;;
70970;SDS011;58632;51.718;19.446;2024-03-17T05:33:24;9.90;;;2.70;;
70970;SDS011;58632;51.718;19.446;2024-03-17T05:35:51;9.50;;;2.70;;
70970;SDS011;58632;51.718;19.446;2024-03-17T05:38:19;9.50;;;3.50;;
70970;SDS011;58632;51.718;19.446;2024-03-17T05:43:21;9.30;;;2.60;;
70970;SDS011;58632;51.718;19.446;2024-03-17T05:45:47;9.30;;;2.80;;
70970;SDS011;58632;51.718;19.446;2024-03-17T05:48:13;10.50;;;2.70;;
70970;SDS011;58632;51.718;19.446;2024-03-17T05:50:39;9.60;;;2.70;;
70970;SDS011;58632;51.718;19.446;2024-03-17T05:53:04;8.00;;;2.20;;
70970;SDS011;58632;51.718;19.446;2024-03-17T05:55:30;12.80;;;3.50;;
70970;SDS011;58632;51.718;19.446;2024-03-17T05:57:56;10.50;;;3.60;;
70970;SDS011;58632;51.718;19.446;2024-03-17T06:00:21;9.80;;;2.70;;
70970;SDS011;58632;51.718;19.446;2024-03-17T06:02:47;9.90;;;3.30;;
70970;SDS011;58632;51.718;19.446;2024-03-17T06:05:13;9.60;;;2.60;;
70970;SDS011;58632;51.718;19.446;2024-03-17T06:07:39;11.20;;;3.80;;
70970;SDS011;58632;51.718;19.446;2024-03-17T06:10:06;8.60;;;2.60;;
70970;SDS011;58632;51.718;19.446;2024-03-17T06:12:32;13.50;;;3.70;;
70970;SDS011;58632;51.718;19.446;2024-03-17T06:14:57;11.80;;;3.40;;
70970;SDS011;58632;51.718;19.446;2024-03-17T06:17:24;12.30;;;3.50;;
70970;SDS011;58632;51.718;19.446;2024-03-17T06:19:51;10.10;;;3.60;;
70970;SDS011;58632;51.718;19.446;2024-03-17T06:22:19;10.50;;;3.00;;
70970;SDS011;58632;51.718;19.446;2024-03-17T06:24:47;12.50;;;3.10;;
70970;SDS011;58632;51.718;19.446;2024-03-17T06:27:14;10.70;;;3.00;;
70970;SDS011;58632;51.718;19.446;2024-03-17T06:29:40;7.60;;;2.70;;
70970;SDS011;58632;51.718;19.446;2024-03-17T06:32:11;12.90;;;2.80;;
70970;SDS011;58632;51.718;19.446;2024-03-17T06:34:37;9.90;;;3.00;;
70970;SDS011;58632;51.718;19.446;2024-03-17T06:37:02;8.60;;;2.70;;
70970;SDS011;58632;51.718;19.446;2024-03-17T06:39:28;9.00;;;2.70;;
70970;SDS011;58632;51.718;19.446;2024-03-17T06:41:56;9.50;;;3.50;;
70970;SDS011;58632;51.718;19.446;2024-03-17T06:44:21;11.80;;;2.50;;
70970;SDS011;58632;51.718;19.446;2024-03-17T06:46:52;9.20;;;3.60;;
70970;SDS011;58632;51.718;19.446;2024-03-17T06:49:17;8.00;;;2.70;;
70970;SDS011;58632;51.718;19.446;2024-03-17T06:51:46;10.30;;;2.80;;
70970;SDS011;58632;51.718;19.446;2024-03-17T06:54:13;9.20;;;2.30;;
70970;SDS011;58632;51.718;19.446;2024-03-17T06:56:39;11.80;;;3.10;;
70970;SDS011;58632;51.718;19.446;2024-03-17T06:59:05;8.80;;;3.00;;
70970;SDS011;58632;51.718;19.446;2024-03-17T07:01:30;11.70;;;2.40;;
70970;SDS011;58632;51.718;19.446;2024-03-17T07:03:56;8.30;;;2.90;;
70970;SDS011;58632;51.718;19.446;2024-03-17T07:06:22;8.50;;;2.70;;
70970;SDS011;58632;51.718;19.446;2024-03-17T07:08:49;11.50;;;2.70;;
70970;SDS011;58632;51.718;19.446;2024-03-17T07:11:14;10.00;;;2.60;;
70970;SDS011;58632;51.718;19.446;2024-03-17T07:13:42;10.40;;;2.50;;
70970;SDS011;58632;51.718;19.446;2024-03-17T07:16:10;9.40;;;2.80;;
70970;SDS011;58632;51.718;19.446;2024-03-17T07:18:36;9.60;;;3.50;;
70970;SDS011;58632;51.718;19.446;2024-03-17T07:21:07;10.50;;;3.20;;
70970;SDS011;58632;51.718;19.446;2024-03-17T07:23:35;10.70;;;2.90;;
70970;SDS011;58632;51.718;19.446;2024-03-17T07:26:02;23.80;;;8.10;;
70970;SDS011;58632;51.718;19.446;2024-03-17T07:28:30;7.80;;;2.40;;
70970;SDS011;58632;51.718;19.446;2024-03-17T07:30:57;8.00;;;2.50;;
70970;SDS011;58632;51.718;19.446;2024-03-17T07:33:25;12.40;;;2.80;;
70970;SDS011;58632;51.718;19.446;2024-03-17T07:35:52;9.50;;;2.20;;
70970;SDS011;58632;51.718;19.446;2024-03-17T07:38:22;7.70;;;3.00;;
70970;SDS011;58632;51.718;19.446;2024-03-17T07:43:32;9.70;;;2.50;;
70970;SDS011;58632;51.718;19.446;2024-03-17T07:46:06;9.20;;;3.00;;
70970;SDS011;58632;51.718;19.446;2024-03-17T07:48:34;12.80;;;2.80;;
70970;SDS011;58632;51.718;19.446;2024-03-17T07:51:11;8.00;;;2.50;;
70970;SDS011;58632;51.718;19.446;2024-03-17T07:56:07;10.20;;;3.40;;
70970;SDS011;58632;51.718;19.446;2024-03-17T07:58:43;7.90;;;2.70;;
70970;SDS011;58632;51.718;19.446;2024-03-17T08:01:13;7.40;;;2.50;;
70970;SDS011;58632;51.718;19.446;2024-03-17T08:08:32;14.60;;;4.10;;
70970;SDS011;58632;51.718;19.446;2024-03-17T08:10:58;10.10;;;2.50;;
70970;SDS011;58632;51.718;19.446;2024-03-17T08:13:24;7.20;;;2.30;;
70970;SDS011;58632;51.718;19.446;2024-03-17T08:15:56;8.30;;;2.40;;
70970;SDS011;58632;51.718;19.446;2024-03-17T08:18:23;6.80;;;2.20;;
70970;SDS011;58632;51.718;19.446;2024-03-17T08:20:50;8.30;;;2.70;;
70970;SDS011;58632;51.718;19.446;2024-03-17T08:23:15;11.90;;;4.40;;
70970;SDS011;58632;51.718;19.446;2024-03-17T08:25:41;7.90;;;2.70;;
70970;SDS011;58632;51.718;19.446;2024-03-17T08:28:07;11.40;;;2.90;;
70970;SDS011;58632;51.718;19.446;2024-03-17T08:30:33;9.50;;;2.40;;
70970;SDS011;58632;51.718;19.446;2024-03-17T08:32:59;8.20;;;2.30;;
70970;SDS011;58632;51.718;19.446;2024-03-17T08:35:26;11.20;;;2.70;;
70970;SDS011;58632;51.718;19.446;2024-03-17T08:37:52;9.90;;;2.80;;
70970;SDS011;58632;51.718;19.446;2024-03-17T08:40:20;8.80;;;3.20;;
70970;SDS011;58632;51.718;19.446;2024-03-17T08:42:46;9.00;;;2.60;;
70970;SDS011;58632;51.718;19.446;2024-03-17T08:45:11;9.40;;;2.50;;
70970;SDS011;58632;51.718;19.446;2024-03-17T08:47:39;6.00;;;2.70;;
70970;SDS011;58632;51.718;19.446;2024-03-17T08:50:05;9.60;;;2.90;;
70970;SDS011;58632;51.718;19.446;2024-03-17T08:52:36;6.60;;;2.10;;
70970;SDS011;58632;51.718;19.446;2024-03-17T08:55:01;8.30;;;2.90;;
70970;SDS011;58632;51.718;19.446;2024-03-17T08:57:35;10.10;;;3.80;;
70970;SDS011;58632;51.718;19.446;2024-03-17T09:00:01;10.20;;;2.80;;
70970;SDS011;58632;51.718;19.446;2024-03-17T09:02:26;10.30;;;2.90;;
70970;SDS011;58632;51.718;19.446;2024-03-17T09:04:52;9.00;;;2.60;;
70970;SDS011;58632;51.718;19.446;2024-03-17T09:07:17;9.10;;;2.90;;
70970;SDS011;58632;51.718;19.446;2024-03-17T09:09:43;8.30;;;2.10;;
70970;SDS011;58632;51.718;19.446;2024-03-17T09:12:09;9.20;;;3.10;;
70970;SDS011;58632;51.718;19.446;2024-03-17T09:14:34;7.80;;;2.60;;
70970;SDS011;58632;51.718;19.446;2024-03-17T09:17:00;9.00;;;2.80;;
70970;SDS011;58632;51.718;19.446;2024-03-17T09:19:26;8.10;;;2.70;;
70970;SDS011;58632;51.718;19.446;2024-03-17T09:21:51;10.10;;;2.10;;
70970;SDS011;58632;51.718;19.446;2024-03-17T09:24:17;6.20;;;1.80;;
70970;SDS011;58632;51.718;19.446;2024-03-17T09:26:42;8.20;;;2.70;;
70970;SDS011;58632;51.718;19.446;2024-03-17T09:29:08;6.90;;;3.10;;
70970;SDS011;58632;51.718;19.446;2024-03-17T09:31:33;8.40;;;2.30;;
70970;SDS011;58632;51.718;19.446;2024-03-17T09:34:01;6.40;;;2.40;;
70970;SDS011;58632;51.718;19.446;2024-03-17T09:36:27;6.10;;;1.80;;
70970;SDS011;58632;51.718;19.446;2024-03-17T09:38:53;9.20;;;4.30;;
70970;SDS011;58632;51.718;19.446;2024-03-17T09:41:20;14.80;;;8.00;;
70970;SDS011;58632;51.718;19.446;2024-03-17T09:43:47;9.50;;;4.40;;
70970;SDS011;58632;51.718;19.446;2024-03-17T09:46:13;10.60;;;3.70;;
70970;SDS011;58632;51.718;19.446;2024-03-17T09:48:41;6.90;;;2.80;;
70970;SDS011;58632;51.718;19.446;2024-03-17T09:51:07;9.30;;;2.90;;
70970;SDS011;58632;51.718;19.446;2024-03-17T09:54:01;6.90;;;2.80;;
70970;SDS011;58632;51.718;19.446;2024-03-17T09:56:41;9.90;;;4.70;;
70970;SDS011;58632;51.718;19.446;2024-03-17T09:59:07;12.50;;;4.30;;
70970;SDS011;58632;51.718;19.446;2024-03-17T10:01:33;14.00;;;5.30;;
70970;SDS011;58632;51.718;19.446;2024-03-17T10:03:59;6.40;;;2.80;;
70970;SDS011;58632;51.718;19.446;2024-03-17T10:06:28;8.70;;;3.10;;
70970;SDS011;58632;51.718;19.446;2024-03-17T10:08:56;5.60;;;2.10;;
70970;SDS011;58632;51.718;19.446;2024-03-17T10:11:46;10.30;;;3.30;;
70970;SDS011;58632;51.718;19.446;2024-03-17T10:14:12;7.20;;;3.00;;
70970;SDS011;58632;51.718;19.446;2024-03-17T10:16:42;9.70;;;3.80;;
70970;SDS011;58632;51.718;19.446;2024-03-17T10:21:48;6.90;;;3.00;;
70970;SDS011;58632;51.718;19.446;2024-03-17T10:26:49;11.40;;;5.80;;
70970;SDS011;58632;51.718;19.446;2024-03-17T10:29:26;8.40;;;2.80;;
70970;SDS011;58632;51.718;19.446;2024-03-17T10:32:04;9.00;;;4.00;;
70970;SDS011;58632;51.718;19.446;2024-03-17T10:34:38;11.20;;;5.70;;
70970;SDS011;58632;51.718;19.446;2024-03-17T10:39:42;10.60;;;4.10;;
70970;SDS011;58632;51.718;19.446;2024-03-17T10:42:09;11.30;;;4.80;;
70970;SDS011;58632;51.718;19.446;2024-03-17T10:44:36;8.90;;;4.20;;
70970;SDS011;58632;51.718;19.446;2024-03-17T10:47:04;13.30;;;5.50;;
70970;SDS011;58632;51.718;19.446;2024-03-17T10:49:37;13.20;;;7.40;;
70970;SDS011;58632;51.718;19.446;2024-03-17T10:52:07;16.00;;;8.20;;
70970;SDS011;58632;51.718;19.446;2024-03-17T10:54:43;15.90;;;7.70;;
70970;SDS011;58632;51.718;19.446;2024-03-17T10:59:50;10.60;;;5.40;;
70970;SDS011;58632;51.718;19.446;2024-03-17T11:02:25;8.50;;;4.50;;
70970;SDS011;58632;51.718;19.446;2024-03-17T11:05:00;13.10;;;6.60;;
70970;SDS011;58632;51.718;19.446;2024-03-17T11:07:46;8.70;;;4.70;;
70970;SDS011;58632;51.718;19.446;2024-03-17T11:10:20;9.30;;;5.30;;
70970;SDS011;58632;51.718;19.446;2024-03-17T11:12:48;10.30;;;5.50;;
70970;SDS011;58632;51.718;19.446;2024-03-17T11:17:52;10.80;;;3.30;;
70970;SDS011;58632;51.718;19.446;2024-03-17T11:20:26;9.70;;;4.00;;
70970;SDS011;58632;51.718;19.446;2024-03-17T11:23:00;9.40;;;4.80;;
70970;SDS011;58632;51.718;19.446;2024-03-17T11:27:57;5.50;;;2.60;;
70970;SDS011;58632;51.718;19.446;2024-03-17T11:47:02;8.10;;;3.10;;
70970;SDS011;58632;51.718;19.446;2024-03-17T11:54:34;11.60;;;4.60;;
70970;SDS011;58632;51.718;19.446;2024-03-17T11:57:11;9.10;;;3.10;;
70970;SDS011;58632;51.718;19.446;2024-03-17T11:59:38;18.70;;;4.60;;
70970;SDS011;58632;51.718;19.446;2024-03-17T12:04:39;13.90;;;4.50;;
70970;SDS011;58632;51.718;19.446;2024-03-17T12:07:07;17.90;;;6.40;;
70970;SDS011;58632;51.718;19.446;2024-03-17T12:09:37;21.00;;;6.20;;
70970;SDS011;58632;51.718;19.446;2024-03-17T12:12:04;11.10;;;4.30;;
70970;SDS011;58632;51.718;19.446;2024-03-17T12:14:34;8.30;;;3.80;;
70970;SDS011;58632;51.718;19.446;2024-03-17T12:19:27;9.00;;;3.40;;
70970;SDS011;58632;51.718;19.446;2024-03-17T12:21:57;7.10;;;3.80;;
70970;SDS011;58632;51.718;19.446;2024-03-17T12:24:26;8.50;;;3.70;;
70970;SDS011;58632;51.718;19.446;2024-03-17T12:26:54;14.60;;;5.30;;
70970;SDS011;58632;51.718;19.446;2024-03-17T12:29:25;10.40;;;3.70;;
70970;SDS011;58632;51.718;19.446;2024-03-17T12:31:58;7.90;;;3.30;;
70970;SDS011;58632;51.718;19.446;2024-03-17T12:34:28;8.60;;;3.30;;
70970;SDS011;58632;51.718;19.446;2024-03-17T12:36:56;8.00;;;3.70;;
70970;SDS011;58632;51.718;19.446;2024-03-17T12:39:24;14.70;;;5.40;;
70970;SDS011;58632;51.718;19.446;2024-03-17T12:44:50;20.90;;;6.40;;
70970;SDS011;58632;51.718;19.446;2024-03-17T12:49:50;12.00;;;4.10;;
70970;SDS011;58632;51.718;19.446;2024-03-17T12:55:00;10.10;;;4.20;;
70970;SDS011;58632;51.718;19.446;2024-03-17T12:57:44;9.10;;;3.90;;
70970;SDS011;58632;51.718;19.446;2024-03-17T13:00:30;11.90;;;4.10;;
70970;SDS011;58632;51.718;19.446;2024-03-17T13:03:04;9.90;;;4.30;;
70970;SDS011;58632;51.718;19.446;2024-03-17T13:05:31;10.00;;;5.30;;
70970;SDS011;58632;51.718;19.446;2024-03-17T13:07:58;7.60;;;3.70;;
70970;SDS011;58632;51.718;19.446;2024-03-17T13:10:24;7.50;;;3.80;;
70970;SDS011;58632;51.718;19.446;2024-03-17T13:13:00;9.00;;;4.70;;
70970;SDS011;58632;51.718;19.446;2024-03-17T13:15:31;5.90;;;3.30;;
70970;SDS011;58632;51.718;19.446;2024-03-17T13:17:57;6.60;;;3.20;;
70970;SDS011;58632;51.718;19.446;2024-03-17T13:20:24;9.90;;;3.80;;
70970;SDS011;58632;51.718;19.446;2024-03-17T13:22:51;8.60;;;3.80;;
70970;SDS011;58632;51.718;19.446;2024-03-17T13:25:17;10.60;;;4.40;;
70970;SDS011;58632;51.718;19.446;2024-03-17T13:27:45;10.10;;;3.70;;
70970;SDS011;58632;51.718;19.446;2024-03-17T13:30:12;7.90;;;3.40;;
70970;SDS011;58632;51.718;19.446;2024-03-17T13:35:05;6.80;;;3.20;;
70970;SDS011;58632;51.718;19.446;2024-03-17T13:37:33;9.00;;;3.60;;
70970;SDS011;58632;51.718;19.446;2024-03-17T13:42:28;29.00;;;12.00;;
70970;SDS011;58632;51.718;19.446;2024-03-17T13:44:54;22.90;;;9.50;;
70970;SDS011;58632;51.718;19.446;2024-03-17T13:47:19;17.20;;;7.30;;
70970;SDS011;58632;51.718;19.446;2024-03-17T13:49:45;14.00;;;5.00;;
70970;SDS011;58632;51.718;19.446;2024-03-17T13:52:12;12.40;;;4.80;;
70970;SDS011;58632;51.718;19.446;2024-03-17T13:54:37;8.80;;;3.40;;
70970;SDS011;58632;51.718;19.446;2024-03-17T13:57:03;9.80;;;4.60;;
70970;SDS011;58632;51.718;19.446;2024-03-17T13:59:30;7.70;;;4.00;;
70970;SDS011;58632;51.718;19.446;2024-03-17T14:01:55;8.40;;;4.10;;
70970;SDS011;58632;51.718;19.446;2024-03-17T14:04:21;7.90;;;3.50;;
70970;SDS011;58632;51.718;19.446;2024-03-17T14:06:46;7.60;;;3.70;;
70970;SDS011;58632;51.718;19.446;2024-03-17T14:09:16;7.90;;;4.30;;
70970;SDS011;58632;51.718;19.446;2024-03-17T14:11:43;13.70;;;6.30;;
70970;SDS011;58632;51.718;19.446;2024-03-17T14:14:10;11.10;;;5.80;;
70970;SDS011;58632;51.718;19.446;2024-03-17T14:16:35;8.90;;;4.40;;
70970;SDS011;58632;51.718;19.446;2024-03-17T14:19:01;11.30;;;7.90;;
70970;SDS011;58632;51.718;19.446;2024-03-17T14:21:27;9.10;;;6.40;;
70970;SDS011;58632;51.718;19.446;2024-03-17T14:23:53;15.80;;;10.10;;
70970;SDS011;58632;51.718;19.446;2024-03-17T14:26:20;12.30;;;7.80;;
70970;SDS011;58632;51.718;19.446;2024-03-17T14:28:48;14.00;;;9.40;;
70970;SDS011;58632;51.718;19.446;2024-03-17T14:31:15;13.60;;;8.10;;
70970;SDS011;58632;51.718;19.446;2024-03-17T14:33:45;13.50;;;8.10;;
70970;SDS011;58632;51.718;19.446;2024-03-17T14:36:12;10.90;;;4.70;;
70970;SDS011;58632;51.718;19.446;2024-03-17T14:38:38;5.90;;;3.70;;
70970;SDS011;58632;51.718;19.446;2024-03-17T14:41:04;6.60;;;3.50;;
70970;SDS011;58632;51.718;19.446;2024-03-17T14:43:31;4.60;;;2.80;;
70970;SDS011;58632;51.718;19.446;2024-03-17T14:45:56;6.60;;;2.70;;
70970;SDS011;58632;51.718;19.446;2024-03-17T14:48:22;6.10;;;3.10;;
70970;SDS011;58632;51.718;19.446;2024-03-17T14:50:48;7.50;;;5.20;;
70970;SDS011;58632;51.718;19.446;2024-03-17T14:53:14;7.20;;;3.90;;
70970;SDS011;58632;51.718;19.446;2024-03-17T14:55:39;6.40;;;4.30;;
70970;SDS011;58632;51.718;19.446;2024-03-17T14:58:05;7.10;;;3.60;;
70970;SDS011;58632;51.718;19.446;2024-03-17T15:00:31;7.40;;;5.00;;
70970;SDS011;58632;51.718;19.446;2024-03-17T15:02:57;10.30;;;5.40;;
70970;SDS011;58632;51.718;19.446;2024-03-17T15:05:25;12.30;;;4.70;;
70970;SDS011;58632;51.718;19.446;2024-03-17T15:07:51;5.70;;;3.10;;
70970;SDS011;58632;51.718;19.446;2024-03-17T15:10:17;4.90;;;2.50;;
70970;SDS011;58632;51.718;19.446;2024-03-17T15:12:46;5.20;;;2.90;;
70970;SDS011;58632;51.718;19.446;2024-03-17T15:15:15;7.30;;;3.70;;
70970;SDS011;58632;51.718;19.446;2024-03-17T15:17:40;7.60;;;4.10;;
70970;SDS011;58632;51.718;19.446;2024-03-17T15:20:10;10.10;;;4.50;;
70970;SDS011;58632;51.718;19.446;2024-03-17T15:22:45;9.50;;;4.70;;
70970;SDS011;58632;51.718;19.446;2024-03-17T15:25:12;6.90;;;4.30;;
70970;SDS011;58632;51.718;19.446;2024-03-17T15:27:44;14.80;;;8.00;;
70970;SDS011;58632;51.718;19.446;2024-03-17T15:30:17;13.80;;;8.20;;
70970;SDS011;58632;51.718;19.446;2024-03-17T15:32:51;12.60;;;5.50;;
70970;SDS011;58632;51.718;19.446;2024-03-17T15:35:20;10.90;;;5.20;;
70970;SDS011;58632;51.718;19.446;2024-03-17T15:37:46;10.00;;;5.30;;
70970;SDS011;58632;51.718;19.446;2024-03-17T15:40:13;7.50;;;4.10;;
70970;SDS011;58632;51.718;19.446;2024-03-17T15:42:42;8.10;;;3.70;;
70970;SDS011;58632;51.718;19.446;2024-03-17T15:45:11;5.40;;;3.50;;